Time;durP1;ratioP1;P1;durP2;ratioP2;P2;SDS_P1;SDS_P2;PMS_P1;PMS_P2;Temp;Humidity;BMP_temperature;BMP_pressure;BME280_temperature;BME280_humidity;BME280_pressure;Samples;Min_cycle;Max_cycle;Signal;HPM_P1;HPM_P2
2022/06/24 00:01:19;;;;;;;5.73;5.20;;;;;;;;;;5056303;28;20182;-65
2022/06/24 00:03:45;;;;;;;7.57;5.50;;;;;;;;;;5056268;28;20178;-66
2022/06/24 00:06:15;;;;;;;8.13;5.83;;;;;;;;;;5055845;28;20547;-66
2022/06/24 00:08:48;;;;;;;7.87;6.03;;;;;;;;;;5055779;28;20690;-66
2022/06/24 00:11:14;;;;;;;10.40;5.63;;;;;;;;;;5037873;28;20166;-66
2022/06/24 00:13:41;;;;;;;8.70;6.03;;;;;;;;;;5055696;28;20178;-66
2022/06/24 00:16:07;;;;;;;8.30;5.87;;;;;;;;;;5055780;28;20186;-66
2022/06/24 00:18:33;;;;;;;8.10;6.20;;;;;;;;;;5037714;28;20210;-66
2022/06/24 00:20:59;;;;;;;10.37;5.77;;;;;;;;;;5037922;28;20579;-66
2022/06/24 00:23:25;;;;;;;7.90;6.23;;;;;;;;;;5055802;28;20638;-66
2022/06/24 00:25:51;;;;;;;9.20;5.87;;;;;;;;;;5055910;28;20186;-66
2022/06/24 00:28:17;;;;;;;11.10;6.60;;;;;;;;;;5056070;28;20175;-66
2022/06/24 00:30:44;;;;;;;10.13;7.23;;;;;;;;;;5055950;28;20179;-66
2022/06/24 00:33:10;;;;;;;9.57;6.30;;;;;;;;;;5037267;28;20178;-66
2022/06/24 00:35:38;;;;;;;11.43;6.33;;;;;;;;;;5036358;28;20210;-66
2022/06/24 00:38:20;;;;;;;10.77;7.50;;;;;;;;;;5055881;28;20292;-66
2022/06/24 00:40:47;;;;;;;12.97;7.17;;;;;;;;;;5037320;28;20220;-67
2022/06/24 00:43:19;;;;;;;10.57;6.70;;;;;;;;;;5055039;28;20182;-65
2022/06/24 00:45:46;;;;;;;12.43;6.60;;;;;;;;;;5037237;28;20196;-65
2022/06/24 00:48:16;;;;;;;9.63;6.13;;;;;;;;;;5055155;28;20190;-65
2022/06/24 00:50:46;;;;;;;11.43;7.47;;;;;;;;;;5037279;28;20190;-65
2022/06/24 00:53:13;;;;;;;8.03;6.43;;;;;;;;;;5037086;28;20642;-68
2022/06/24 00:55:41;;;;;;;8.20;7.00;;;;;;;;;;5054927;28;20171;-65
2022/06/24 00:58:13;;;;;;;11.60;7.90;;;;;;;;;;5055499;28;20253;-65
2022/06/24 01:00:41;;;;;;;13.57;7.27;;;;;;;;;;5055230;28;20258;-67
2022/06/24 01:03:07;;;;;;;9.43;7.70;;;;;;;;;;5054971;28;20189;-65
2022/06/24 01:05:33;;;;;;;12.90;8.87;;;;;;;;;;5036848;28;20186;-65
2022/06/24 01:08:05;;;;;;;10.33;8.40;;;;;;;;;;5054607;28;20174;-66
2022/06/24 01:10:31;;;;;;;11.77;8.83;;;;;;;;;;5054316;28;20222;-66
2022/06/24 01:12:57;;;;;;;12.47;8.97;;;;;;;;;;5036613;28;20600;-66
2022/06/24 01:15:23;;;;;;;12.57;9.57;;;;;;;;;;5036508;28;20182;-66
2022/06/24 01:17:50;;;;;;;11.73;9.13;;;;;;;;;;5036451;28;20697;-67
2022/06/24 01:20:16;;;;;;;12.40;9.57;;;;;;;;;;5036351;28;20575;-66
2022/06/24 01:22:42;;;;;;;11.17;9.80;;;;;;;;;;5036349;28;20247;-66
2022/06/24 01:25:09;;;;;;;11.13;9.60;;;;;;;;;;5054400;28;20683;-65
2022/06/24 01:27:35;;;;;;;13.70;9.80;;;;;;;;;;5054117;28;20316;-65
2022/06/24 01:30:01;;;;;;;13.27;9.93;;;;;;;;;;5053920;28;20284;-66
2022/06/24 01:32:26;;;;;;;13.70;9.53;;;;;;;;;;5054203;28;20665;-65
2022/06/24 01:34:52;;;;;;;13.10;9.07;;;;;;;;;;5036113;28;20185;-66
2022/06/24 01:37:18;;;;;;;10.40;8.37;;;;;;;;;;5054598;28;20174;-67
2022/06/24 01:39:44;;;;;;;14.20;9.83;;;;;;;;;;5054540;28;20654;-66
2022/06/24 01:42:10;;;;;;;13.73;8.07;;;;;;;;;;5054124;28;20651;-66
2022/06/24 01:44:36;;;;;;;9.53;8.53;;;;;;;;;;5053872;28;20186;-65
2022/06/24 01:47:03;;;;;;;11.83;8.80;;;;;;;;;;5035653;28;20193;-67
2022/06/24 01:49:29;;;;;;;9.43;7.73;;;;;;;;;;5053942;28;20206;-67
2022/06/24 01:51:56;;;;;;;14.07;9.37;;;;;;;;;;5035880;28;20206;-67
2022/06/24 01:54:22;;;;;;;10.47;8.57;;;;;;;;;;5036724;28;20265;-67
2022/06/24 01:56:48;;;;;;;18.80;7.93;;;;;;;;;;5053641;28;20672;-67
2022/06/24 01:59:14;;;;;;;13.03;8.40;;;;;;;;;;5053952;28;20228;-67
2022/06/24 02:01:41;;;;;;;10.30;8.23;;;;;;;;;;5035890;28;20187;-67
2022/06/24 02:04:07;;;;;;;13.67;8.17;;;;;;;;;;5053552;28;20304;-68
2022/06/24 02:06:33;;;;;;;12.30;8.23;;;;;;;;;;5053697;28;20185;-67
2022/06/24 02:08:59;;;;;;;13.77;8.30;;;;;;;;;;5053219;28;20221;-67
2022/06/24 02:14:10;;;;;;;10.97;7.80;;;;;;;;;;5053442;28;20166;-66
2022/06/24 02:16:37;;;;;;;12.30;7.90;;;;;;;;;;5035564;28;20257;-67
2022/06/24 02:19:03;;;;;;;10.63;8.33;;;;;;;;;;5053526;28;20203;-65
2022/06/24 02:21:29;;;;;;;11.27;8.27;;;;;;;;;;5035409;28;20200;-67
2022/06/24 02:23:55;;;;;;;9.60;7.30;;;;;;;;;;5053286;28;20181;-67
2022/06/24 02:26:21;;;;;;;12.00;8.20;;;;;;;;;;5035574;28;20270;-67
2022/06/24 02:28:47;;;;;;;10.97;7.67;;;;;;;;;;5053648;28;20199;-67
2022/06/24 02:31:13;;;;;;;10.00;8.00;;;;;;;;;;5053464;28;20228;-66
2022/06/24 02:33:39;;;;;;;10.50;7.97;;;;;;;;;;5053768;28;20630;-67
2022/06/24 02:36:06;;;;;;;8.30;7.33;;;;;;;;;;5053645;28;20174;-67
2022/06/24 02:38:33;;;;;;;10.90;8.10;;;;;;;;;;5053171;28;20244;-68
2022/06/24 02:41:00;;;;;;;9.47;7.57;;;;;;;;;;5035682;28;20179;-66
2022/06/24 02:43:30;;;;;;;8.73;7.40;;;;;;;;;;5053464;28;20202;-67
2022/06/24 02:46:03;;;;;;;13.87;7.83;;;;;;;;;;5053583;28;20179;-67
2022/06/24 02:48:30;;;;;;;14.70;7.37;;;;;;;;;;5053695;28;20178;-66
2022/06/24 02:51:00;;;;;;;10.00;7.87;;;;;;;;;;5053461;28;20170;-66
2022/06/24 02:53:27;;;;;;;9.47;7.40;;;;;;;;;;5053490;28;20165;-67
2022/06/24 02:55:59;;;;;;;11.33;7.87;;;;;;;;;;5053074;28;20605;-66
2022/06/24 02:58:26;;;;;;;11.07;7.70;;;;;;;;;;5037617;28;20175;-66
2022/06/24 03:00:52;;;;;;;8.53;7.20;;;;;;;;;;5056923;28;20253;-64
2022/06/24 03:03:19;;;;;;;11.17;8.20;;;;;;;;;;5057014;28;20209;-67
2022/06/24 03:05:45;;;;;;;9.20;8.07;;;;;;;;;;5057471;28;20181;-66
2022/06/24 03:08:12;;;;;;;11.97;8.27;;;;;;;;;;5056787;28;20174;-66
2022/06/24 03:10:38;;;;;;;13.77;8.23;;;;;;;;;;5056722;28;20619;-66
2022/06/24 03:13:05;;;;;;;12.03;8.83;;;;;;;;;;5056697;28;20175;-67
2022/06/24 03:15:31;;;;;;;12.37;8.97;;;;;;;;;;5056918;28;20253;-67
2022/06/24 03:17:57;;;;;;;12.90;8.70;;;;;;;;;;5056755;28;20202;-67
2022/06/24 03:20:23;;;;;;;11.43;9.17;;;;;;;;;;5038672;28;20698;-65
2022/06/24 03:22:49;;;;;;;13.30;9.70;;;;;;;;;;5056864;28;20182;-66
2022/06/24 03:25:15;;;;;;;11.30;9.57;;;;;;;;;;5056595;28;20239;-67
2022/06/24 03:27:42;;;;;;;14.20;9.93;;;;;;;;;;5056614;28;20606;-68
2022/06/24 03:30:09;;;;;;;11.60;9.43;;;;;;;;;;5038454;28;20574;-66
2022/06/24 03:32:35;;;;;;;10.87;9.77;;;;;;;;;;5056481;28;20197;-66
2022/06/24 03:35:01;;;;;;;14.73;10.50;;;;;;;;;;5056805;28;20534;-67
2022/06/24 03:37:29;;;;;;;11.93;9.63;;;;;;;;;;5056928;28;20209;-66
2022/06/24 03:39:55;;;;;;;10.50;9.37;;;;;;;;;;5084334;22;20255;-66
2022/06/24 03:42:21;;;;;;;14.03;9.93;;;;;;;;;;5038156;28;20198;-67
2022/06/24 03:44:47;;;;;;;10.87;9.50;;;;;;;;;;5039145;28;20554;-67
2022/06/24 03:47:13;;;;;;;12.57;9.43;;;;;;;;;;5039079;28;20182;-66
2022/06/24 03:49:39;;;;;;;11.03;9.23;;;;;;;;;;5056934;28;20229;-67
2022/06/24 03:52:05;;;;;;;9.83;8.70;;;;;;;;;;5056627;28;20228;-67
2022/06/24 03:54:32;;;;;;;8.97;8.17;;;;;;;;;;5039061;28;20616;-67
2022/06/24 03:56:58;;;;;;;10.33;7.53;;;;;;;;;;5057116;28;20179;-67
2022/06/24 03:59:24;;;;;;;9.20;8.30;;;;;;;;;;5038666;28;20187;-67
2022/06/24 04:01:50;;;;;;;11.40;8.43;;;;;;;;;;5056766;28;20209;-67
2022/06/24 04:04:16;;;;;;;9.90;7.50;;;;;;;;;;5056587;28;20186;-67
2022/06/24 04:06:41;;;;;;;8.10;7.10;;;;;;;;;;5038796;28;20179;-67
2022/06/24 04:09:07;;;;;;;7.37;6.60;;;;;;;;;;5056195;28;20209;-67
2022/06/24 04:11:33;;;;;;;7.93;7.13;;;;;;;;;;5056450;28;20202;-68
2022/06/24 04:14:00;;;;;;;7.10;6.43;;;;;;;;;;5056564;28;20179;-68
2022/06/24 04:16:26;;;;;;;7.80;7.03;;;;;;;;;;5056527;28;20174;-67
2022/06/24 04:18:52;;;;;;;8.33;6.37;;;;;;;;;;5056327;28;20181;-68
2022/06/24 04:21:18;;;;;;;7.77;6.47;;;;;;;;;;5056553;28;20217;-68
2022/06/24 04:23:45;;;;;;;7.00;6.30;;;;;;;;;;5038898;28;20619;-67
2022/06/24 04:26:12;;;;;;;6.50;5.90;;;;;;;;;;5038279;28;20181;-68
2022/06/24 04:28:38;;;;;;;7.30;6.53;;;;;;;;;;5056600;28;20182;-67
2022/06/24 04:31:04;;;;;;;8.40;6.57;;;;;;;;;;5056281;28;20206;-67
2022/06/24 04:33:30;;;;;;;10.10;7.67;;;;;;;;;;5056377;28;20171;-68
2022/06/24 04:35:56;;;;;;;11.23;9.47;;;;;;;;;;5055620;28;20182;-68
2022/06/24 04:38:22;;;;;;;8.67;7.83;;;;;;;;;;5038150;28;20207;-68
2022/06/24 04:40:48;;;;;;;7.90;5.47;;;;;;;;;;5056549;28;20598;-68
2022/06/24 04:43:14;;;;;;;9.53;6.37;;;;;;;;;;5056255;28;20253;-68
2022/06/24 04:45:40;;;;;;;30.00;14.77;;;;;;;;;;5056203;28;20183;-68
2022/06/24 04:48:06;;;;;;;7.40;6.70;;;;;;;;;;5055786;28;20179;-68
2022/06/24 04:50:33;;;;;;;14.27;8.63;;;;;;;;;;5055723;28;20234;-68
2022/06/24 04:52:59;;;;;;;16.27;9.07;;;;;;;;;;5055909;28;20178;-68
2022/06/24 04:55:25;;;;;;;11.40;8.53;;;;;;;;;;5055608;28;20183;-67
2022/06/24 04:57:51;;;;;;;8.30;6.50;;;;;;;;;;5056018;28;20180;-68
2022/06/24 05:00:17;;;;;;;8.57;6.53;;;;;;;;;;5037643;28;20293;-68
2022/06/24 05:02:43;;;;;;;8.10;6.43;;;;;;;;;;5055574;28;20245;-68
2022/06/24 05:05:09;;;;;;;7.60;6.57;;;;;;;;;;5055759;28;20178;-67
2022/06/24 05:07:35;;;;;;;6.97;6.10;;;;;;;;;;5055603;28;20269;-68
2022/06/24 05:10:02;;;;;;;7.30;6.53;;;;;;;;;;5055559;28;20348;-68
2022/06/24 05:12:28;;;;;;;6.93;6.33;;;;;;;;;;5037548;28;20312;-67
2022/06/24 05:14:54;;;;;;;7.37;6.07;;;;;;;;;;5037180;28;20174;-68
2022/06/24 05:17:20;;;;;;;7.43;6.60;;;;;;;;;;5055158;28;20596;-67
2022/06/24 05:19:46;;;;;;;7.43;6.23;;;;;;;;;;5054463;28;20179;-68
2022/06/24 05:22:12;;;;;;;7.07;6.07;;;;;;;;;;5054941;28;20206;-68
2022/06/24 05:24:38;;;;;;;7.23;6.27;;;;;;;;;;5036757;28;20236;-67
2022/06/24 05:27:04;;;;;;;6.63;6.03;;;;;;;;;;5036684;28;20607;-67
2022/06/24 05:29:30;;;;;;;5.90;5.40;;;;;;;;;;5036879;28;20214;-66
2022/06/24 05:31:56;;;;;;;6.37;5.07;;;;;;;;;;5054843;28;20662;-67
2022/06/24 05:34:22;;;;;;;6.13;5.40;;;;;;;;;;5055562;28;20174;-66
2022/06/24 05:36:48;;;;;;;5.30;4.80;;;;;;;;;;5036559;28;20278;-66
2022/06/24 05:39:14;;;;;;;4.60;4.20;;;;;;;;;;5036310;28;20269;-67
2022/06/24 05:41:41;;;;;;;5.60;4.40;;;;;;;;;;5054284;28;20217;-68
2022/06/24 05:44:07;;;;;;;5.87;4.33;;;;;;;;;;5055121;28;20186;-67
2022/06/24 05:46:33;;;;;;;6.20;4.23;;;;;;;;;;5054681;28;20198;-68
2022/06/24 05:48:59;;;;;;;7.23;5.10;;;;;;;;;;5054750;28;20202;-67
2022/06/24 05:51:26;;;;;;;5.77;4.50;;;;;;;;;;5054306;28;20198;-67
2022/06/24 05:56:37;;;;;;;5.33;4.20;;;;;;;;;;5054743;28;20173;-68
2022/06/24 05:59:04;;;;;;;7.00;6.10;;;;;;;;;;5054559;28;20555;-67
2022/06/24 06:01:30;;;;;;;5.33;4.80;;;;;;;;;;5036614;28;20295;-67
2022/06/24 06:03:56;;;;;;;5.93;5.30;;;;;;;;;;5055479;28;20186;-67
2022/06/24 06:06:22;;;;;;;5.60;4.57;;;;;;;;;;5055196;28;20262;-67
2022/06/24 06:08:48;;;;;;;7.80;5.20;;;;;;;;;;5055190;28;20355;-67
2022/06/24 06:11:24;;;;;;;5.77;4.80;;;;;;;;;;5055335;28;20195;-67
2022/06/24 06:13:52;;;;;;;8.17;4.63;;;;;;;;;;5055387;28;20241;-67
2022/06/24 06:16:18;;;;;;;6.57;4.23;;;;;;;;;;5036552;28;20210;-67
2022/06/24 06:18:45;;;;;;;5.13;4.33;;;;;;;;;;5054577;28;20170;-66
2022/06/24 06:21:12;;;;;;;4.40;3.83;;;;;;;;;;5036456;28;20639;-67
2022/06/24 06:23:38;;;;;;;3.57;3.27;;;;;;;;;;5036705;28;20210;-68
2022/06/24 06:26:05;;;;;;;4.10;3.70;;;;;;;;;;5036719;28;20175;-67
2022/06/24 06:28:31;;;;;;;6.07;3.80;;;;;;;;;;5035844;28;20236;-68
2022/06/24 06:30:58;;;;;;;7.37;4.40;;;;;;;;;;5053551;28;20198;-69
2022/06/24 06:33:24;;;;;;;4.97;3.90;;;;;;;;;;5053552;28;20559;-68
2022/06/24 06:35:50;;;;;;;4.47;4.07;;;;;;;;;;5035195;28;20182;-67
2022/06/24 06:38:16;;;;;;;4.70;3.90;;;;;;;;;;5035508;28;20186;-68
2022/06/24 06:40:42;;;;;;;4.20;3.40;;;;;;;;;;5035629;28;20226;-68
2022/06/24 06:43:09;;;;;;;7.30;3.47;;;;;;;;;;5053854;28;20174;-68
2022/06/24 06:45:35;;;;;;;3.70;3.30;;;;;;;;;;5035871;28;20183;-67
2022/06/24 06:48:01;;;;;;;5.40;4.07;;;;;;;;;;5053536;28;20216;-69
2022/06/24 06:50:27;;;;;;;4.53;3.80;;;;;;;;;;5053549;28;20268;-68
2022/06/24 06:52:54;;;;;;;5.53;4.30;;;;;;;;;;5053959;28;20240;-68
2022/06/24 06:55:20;;;;;;;5.13;4.00;;;;;;;;;;5053427;28;20170;-69
2022/06/24 06:57:46;;;;;;;8.00;4.50;;;;;;;;;;5053539;28;20627;-69
2022/06/24 07:00:12;;;;;;;4.80;3.80;;;;;;;;;;5035409;28;20268;-68
2022/06/24 07:02:38;;;;;;;5.50;3.90;;;;;;;;;;5053588;28;20210;-69
2022/06/24 07:05:05;;;;;;;4.57;4.10;;;;;;;;;;5035336;28;20187;-68
2022/06/24 07:07:31;;;;;;;5.53;4.10;;;;;;;;;;5053719;28;20178;-69
2022/06/24 07:09:58;;;;;;;4.20;3.80;;;;;;;;;;5053595;28;20293;-68
2022/06/24 07:12:24;;;;;;;6.60;4.03;;;;;;;;;;5053550;28;20530;-68
2022/06/24 07:14:50;;;;;;;5.70;4.33;;;;;;;;;;5053364;28;20186;-66
2022/06/24 07:17:17;;;;;;;4.63;4.23;;;;;;;;;;5053024;28;20179;-66
2022/06/24 07:19:43;;;;;;;4.43;4.03;;;;;;;;;;5035216;28;20645;-66
2022/06/24 07:22:09;;;;;;;5.87;4.10;;;;;;;;;;5034954;28;20198;-67
2022/06/24 07:24:36;;;;;;;5.90;4.67;;;;;;;;;;5052994;28;20179;-68
2022/06/24 07:27:02;;;;;;;6.13;4.40;;;;;;;;;;5036300;28;20197;-68
2022/06/24 07:29:28;;;;;;;8.70;4.57;;;;;;;;;;5053320;28;20255;-68
2022/06/24 07:31:54;;;;;;;7.50;4.60;;;;;;;;;;5035192;28;20198;-69
2022/06/24 07:34:21;;;;;;;6.50;4.70;;;;;;;;;;5035427;28;20179;-66
2022/06/24 07:36:47;;;;;;;7.87;5.30;;;;;;;;;;5052835;28;20291;-67
2022/06/24 07:39:12;;;;;;;7.63;5.30;;;;;;;;;;5053031;28;20312;-67
2022/06/24 07:41:38;;;;;;;4.90;4.40;;;;;;;;;;5034679;28;20296;-68
2022/06/24 07:44:04;;;;;;;7.33;5.27;;;;;;;;;;5054797;28;20179;-67
2022/06/24 07:46:30;;;;;;;8.43;5.33;;;;;;;;;;5038546;28;20182;-67
2022/06/24 07:48:56;;;;;;;6.23;5.63;;;;;;;;;;5056335;28;20198;-67
2022/06/24 07:51:23;;;;;;;6.23;5.40;;;;;;;;;;5056020;28;20202;-67
2022/06/24 07:53:49;;;;;;;7.20;5.80;;;;;;;;;;5056600;28;20253;-67
2022/06/24 07:58:59;;;;;;;5.73;5.23;;;;;;;;;;5056649;28;20284;-66
2022/06/24 08:01:25;;;;;;;7.00;5.67;;;;;;;;;;5056037;28;20664;-67
2022/06/24 08:03:51;;;;;;;6.33;5.30;;;;;;;;;;5056080;28;20257;-67
2022/06/24 08:06:17;;;;;;;6.60;5.60;;;;;;;;;;5056135;28;20184;-67
2022/06/24 08:08:43;;;;;;;6.77;5.33;;;;;;;;;;5056001;28;20232;-66
2022/06/24 08:11:09;;;;;;;5.70;5.10;;;;;;;;;;5056492;28;20662;-68
2022/06/24 08:13:35;;;;;;;6.23;5.20;;;;;;;;;;5056279;28;20178;-68
2022/06/24 08:16:01;;;;;;;8.77;5.07;;;;;;;;;;5056058;28;20175;-68
2022/06/24 08:18:27;;;;;;;6.00;5.40;;;;;;;;;;5038116;28;20328;-68
2022/06/24 08:20:53;;;;;;;5.63;4.97;;;;;;;;;;5055859;28;20277;-68
2022/06/24 08:23:19;;;;;;;6.27;5.37;;;;;;;;;;5037999;28;20186;-68
2022/06/24 08:25:45;;;;;;;8.17;4.63;;;;;;;;;;5055757;28;20716;-68
2022/06/24 08:28:11;;;;;;;10.57;4.70;;;;;;;;;;5055773;28;20182;-68
2022/06/24 08:30:37;;;;;;;9.27;4.90;;;;;;;;;;5037653;28;20599;-68
2022/06/24 08:33:04;;;;;;;5.30;4.50;;;;;;;;;;5037761;28;20622;-68
2022/06/24 08:35:30;;;;;;;7.20;5.30;;;;;;;;;;5056134;28;20186;-68
2022/06/24 08:37:57;;;;;;;6.87;4.83;;;;;;;;;;5055705;28;20545;-68
2022/06/24 08:40:23;;;;;;;7.83;5.20;;;;;;;;;;5055342;28;20264;-68
2022/06/24 08:42:53;;;;;;;7.67;5.40;;;;;;;;;;5055596;28;20185;-68
2022/06/24 08:45:19;;;;;;;6.70;5.07;;;;;;;;;;5055454;28;20174;-68
2022/06/24 08:47:49;;;;;;;6.97;5.07;;;;;;;;;;5037532;28;20193;-67
2022/06/24 08:50:15;;;;;;;6.30;5.03;;;;;;;;;;5055118;28;20210;-67
2022/06/24 08:52:46;;;;;;;9.10;5.67;;;;;;;;;;5055316;28;20170;-69
2022/06/24 08:55:15;;;;;;;6.73;5.07;;;;;;;;;;5036455;28;20181;-69
2022/06/24 08:57:41;;;;;;;6.63;4.70;;;;;;;;;;5037373;28;20240;-70
2022/06/24 09:00:08;;;;;;;6.63;5.50;;;;;;;;;;5055779;28;20201;-69
2022/06/24 09:02:34;;;;;;;5.53;4.73;;;;;;;;;;5055273;28;20179;-70
2022/06/24 09:05:00;;;;;;;5.03;4.33;;;;;;;;;;5055179;28;20189;-68
2022/06/24 09:07:26;;;;;;;6.07;5.17;;;;;;;;;;5055313;28;20266;-69
2022/06/24 09:10:04;;;;;;;6.50;5.40;;;;;;;;;;5055007;28;20261;-69
2022/06/24 09:12:30;;;;;;;9.70;4.77;;;;;;;;;;5037041;28;20178;-69
2022/06/24 09:15:01;;;;;;;7.33;5.20;;;;;;;;;;5054753;28;20642;-67
2022/06/24 09:17:28;;;;;;;5.67;5.00;;;;;;;;;;5036736;28;20182;-67
2022/06/24 09:20:03;;;;;;;5.40;4.90;;;;;;;;;;5036776;28;20186;-66
2022/06/24 09:22:28;;;;;;;9.57;5.53;;;;;;;;;;5054900;28;20169;-67
2022/06/24 09:24:54;;;;;;;8.03;5.27;;;;;;;;;;5036721;28;20178;-67
2022/06/24 09:27:21;;;;;;;6.70;5.57;;;;;;;;;;5054634;28;20182;-67
2022/06/24 09:29:50;;;;;;;6.77;4.57;;;;;;;;;;5054395;28;20206;-67
2022/06/24 09:32:16;;;;;;;6.27;4.70;;;;;;;;;;5054187;28;20273;-67
2022/06/24 09:35:00;;;;;;;8.00;5.90;;;;;;;;;;5054831;28;20174;-67
2022/06/24 09:37:45;;;;;;;6.63;5.83;;;;;;;;;;5054284;28;20231;-67
2022/06/24 09:40:25;;;;;;;6.90;5.73;;;;;;;;;;5054485;28;20602;-67
2022/06/24 09:43:01;;;;;;;8.53;5.70;;;;;;;;;;5036258;28;20598;-68
2022/06/24 09:45:43;;;;;;;7.70;6.40;;;;;;;;;;5054318;28;20208;-68
2022/06/24 09:48:09;;;;;;;7.10;6.40;;;;;;;;;;5036181;28;20186;-68
2022/06/24 09:50:35;;;;;;;7.90;7.10;;;;;;;;;;5054036;28;20268;-68
2022/06/24 09:53:02;;;;;;;8.63;7.13;;;;;;;;;;5054169;28;20659;-68
2022/06/24 09:55:29;;;;;;;7.90;7.10;;;;;;;;;;5053923;28;20650;-70
2022/06/24 09:57:56;;;;;;;8.97;7.10;;;;;;;;;;5053887;28;20177;-68
2022/06/24 10:00:40;;;;;;;8.97;7.50;;;;;;;;;;5053825;28;20194;-68
2022/06/24 10:03:08;;;;;;;9.63;8.07;;;;;;;;;;5053947;28;20194;-68
2022/06/24 10:05:36;;;;;;;9.23;8.33;;;;;;;;;;5053800;28;20189;-68
2022/06/24 10:08:05;;;;;;;9.83;8.13;;;;;;;;;;5053550;28;20171;-68
2022/06/24 10:10:31;;;;;;;8.07;7.17;;;;;;;;;;5053926;28;20202;-68
2022/06/24 10:13:00;;;;;;;9.93;7.40;;;;;;;;;;5054195;28;20171;-68
2022/06/24 10:15:26;;;;;;;8.47;7.27;;;;;;;;;;5054368;28;20174;-68
2022/06/24 10:17:53;;;;;;;7.17;6.57;;;;;;;;;;5054388;28;20236;-68
2022/06/24 10:20:20;;;;;;;7.33;6.47;;;;;;;;;;5054249;28;20222;-67
2022/06/24 10:22:49;;;;;;;6.67;5.97;;;;;;;;;;5054081;28;20179;-67
2022/06/24 10:25:21;;;;;;;7.57;6.27;;;;;;;;;;5036118;28;20189;-66
2022/06/24 10:27:59;;;;;;;6.20;5.60;;;;;;;;;;5053765;28;20174;-66
2022/06/24 10:30:41;;;;;;;9.47;6.63;;;;;;;;;;5035510;28;20218;-68
2022/06/24 10:33:13;;;;;;;6.63;5.00;;;;;;;;;;5053470;28;20266;-68
2022/06/24 10:35:55;;;;;;;7.77;4.87;;;;;;;;;;5053829;28;20198;-67
2022/06/24 10:38:22;;;;;;;5.27;4.50;;;;;;;;;;5053637;28;20166;-68
2022/06/24 10:40:49;;;;;;;6.13;4.73;;;;;;;;;;5053164;28;20646;-67
2022/06/24 10:43:32;;;;;;;5.43;4.93;;;;;;;;;;5036152;28;20181;-67
2022/06/24 10:46:13;;;;;;;6.00;5.33;;;;;;;;;;5053577;28;20177;-67
2022/06/24 10:48:51;;;;;;;5.80;5.30;;;;;;;;;;5053309;28;20182;-67
2022/06/24 10:51:21;;;;;;;5.13;4.73;;;;;;;;;;5053336;28;20193;-67
2022/06/24 10:54:02;;;;;;;5.20;4.10;;;;;;;;;;5053386;28;20178;-67
2022/06/24 10:56:42;;;;;;;6.40;4.50;;;;;;;;;;5053417;28;20311;-68
2022/06/24 10:59:08;;;;;;;5.53;4.13;;;;;;;;;;5053317;28;20647;-68
2022/06/24 11:01:34;;;;;;;4.17;3.80;;;;;;;;;;5034999;28;20309;-68
2022/06/24 11:04:03;;;;;;;4.37;3.83;;;;;;;;;;5052952;28;20182;-67
2022/06/24 11:06:29;;;;;;;4.77;4.13;;;;;;;;;;5053066;28;20182;-68
2022/06/24 11:08:55;;;;;;;3.83;3.53;;;;;;;;;;5035116;28;20186;-68
2022/06/24 11:11:28;;;;;;;4.03;3.70;;;;;;;;;;5053052;28;20277;-67
2022/06/24 11:13:54;;;;;;;3.63;3.33;;;;;;;;;;5052946;28;20249;-68
2022/06/24 11:16:20;;;;;;;3.80;3.50;;;;;;;;;;5053587;28;20202;-68
2022/06/24 11:18:49;;;;;;;3.80;3.50;;;;;;;;;;5054580;28;20179;-68
2022/06/24 11:21:17;;;;;;;4.90;3.90;;;;;;;;;;5071789;22;20234;-65
2022/06/24 11:23:45;;;;;;;3.50;3.17;;;;;;;;;;5056621;28;20656;-65
2022/06/24 11:26:18;;;;;;;4.00;3.60;;;;;;;;;;5038863;28;20182;-65
2022/06/24 11:28:53;;;;;;;4.23;3.50;;;;;;;;;;5038680;28;20175;-65
2022/06/24 11:31:20;;;;;;;5.17;3.87;;;;;;;;;;5038515;28;20194;-65
2022/06/24 11:33:52;;;;;;;4.00;3.40;;;;;;;;;;5056786;28;20224;-65
2022/06/24 11:36:21;;;;;;;4.30;3.30;;;;;;;;;;5038636;28;20190;-65
2022/06/24 11:39:07;;;;;;;4.10;3.80;;;;;;;;;;5056448;28;20596;-65
2022/06/24 11:41:40;;;;;;;4.30;3.30;;;;;;;;;;5038479;28;20210;-66
2022/06/24 11:44:06;;;;;;;3.00;2.80;;;;;;;;;;5056444;28;20623;-65
2022/06/24 11:46:32;;;;;;;3.33;3.03;;;;;;;;;;5056334;28;20185;-65
2022/06/24 11:49:06;;;;;;;3.10;2.90;;;;;;;;;;5037861;28;20189;-65
2022/06/24 11:51:31;;;;;;;3.67;3.30;;;;;;;;;;5038421;28;20230;-65
2022/06/24 11:53:58;;;;;;;3.60;3.30;;;;;;;;;;5056400;28;20272;-64
2022/06/24 11:56:29;;;;;;;2.80;2.60;;;;;;;;;;5056037;28;20193;-65
2022/06/24 11:59:02;;;;;;;3.23;2.93;;;;;;;;;;5038141;28;20261;-63
2022/06/24 12:01:29;;;;;;;3.70;3.33;;;;;;;;;;5038035;28;20202;-65
2022/06/24 12:03:56;;;;;;;3.33;3.03;;;;;;;;;;5056273;28;20178;-65
2022/06/24 12:06:23;;;;;;;3.83;3.20;;;;;;;;;;5056276;28;20205;-66
2022/06/24 12:08:49;;;;;;;3.33;3.03;;;;;;;;;;5055942;28;20695;-66
2022/06/24 12:11:16;;;;;;;3.40;3.10;;;;;;;;;;5056055;28;20565;-66
2022/06/24 12:13:42;;;;;;;3.67;3.20;;;;;;;;;;5037892;28;20634;-66
2022/06/24 12:16:09;;;;;;;4.77;3.93;;;;;;;;;;5037845;28;20178;-66
2022/06/24 12:18:35;;;;;;;4.60;4.00;;;;;;;;;;5037694;28;20232;-66
2022/06/24 12:21:06;;;;;;;5.03;3.93;;;;;;;;;;5055541;28;20232;-66
2022/06/24 12:23:36;;;;;;;4.97;4.03;;;;;;;;;;5038262;28;20104;-66
2022/06/24 12:26:06;;;;;;;4.83;4.33;;;;;;;;;;5037642;28;20179;-66
2022/06/24 12:28:32;;;;;;;5.67;3.50;;;;;;;;;;5055387;28;20171;-66
2022/06/24 12:31:03;;;;;;;4.97;4.07;;;;;;;;;;5055165;28;20612;-66
2022/06/24 12:33:33;;;;;;;3.47;3.17;;;;;;;;;;5055620;28;20166;-66
2022/06/24 12:36:12;;;;;;;4.27;3.93;;;;;;;;;;5038170;28;20177;-67
2022/06/24 12:38:54;;;;;;;4.13;3.80;;;;;;;;;;5055377;28;20201;-65
2022/06/24 12:41:20;;;;;;;5.03;4.27;;;;;;;;;;5055177;28;20190;-66
2022/06/24 12:43:53;;;;;;;4.87;3.70;;;;;;;;;;5037388;28;20181;-65
2022/06/24 12:46:19;;;;;;;4.20;3.37;;;;;;;;;;5037466;28;20277;-65
2022/06/24 12:51:30;;;;;;;3.40;3.10;;;;;;;;;;5055612;28;20578;-66
2022/06/24 12:53:56;;;;;;;3.53;3.17;;;;;;;;;;5055293;28;20645;-65
2022/06/24 12:56:22;;;;;;;5.00;4.60;;;;;;;;;;5055072;28;20174;-66
2022/06/24 12:58:51;;;;;;;4.33;4.03;;;;;;;;;;5054945;28;20185;-66
2022/06/24 13:01:17;;;;;;;5.47;4.97;;;;;;;;;;5055057;28;20277;-66
2022/06/24 13:03:43;;;;;;;4.30;4.00;;;;;;;;;;5055284;28;20111;-66
2022/06/24 13:06:09;;;;;;;4.65;4.25;;;;;;;;;;5054118;28;20870;-66
2022/06/24 13:08:35;;;;;;;4.20;3.80;;;;;;;;;;5054913;28;20183;-66
2022/06/24 13:11:01;;;;;;;3.80;3.40;;;;;;;;;;5054953;28;20246;-66
2022/06/24 13:13:27;;;;;;;3.23;2.93;;;;;;;;;;5054821;28;20213;-66
2022/06/24 13:15:53;;;;;;;3.37;3.10;;;;;;;;;;5055102;28;20182;-66
2022/06/24 13:18:20;;;;;;;3.47;3.17;;;;;;;;;;5054818;28;20182;-66
2022/06/24 13:20:46;;;;;;;3.10;2.90;;;;;;;;;;5054686;28;20182;-66
2022/06/24 13:23:12;;;;;;;3.23;2.93;;;;;;;;;;5036849;28;20189;-66
2022/06/24 13:25:41;;;;;;;3.40;2.73;;;;;;;;;;5036504;28;20174;-66
2022/06/24 13:28:07;;;;;;;2.53;2.33;;;;;;;;;;5054322;28;20183;-66
2022/06/24 13:30:33;;;;;;;2.50;2.30;;;;;;;;;;5054386;28;20201;-66
2022/06/24 13:32:58;;;;;;;3.70;2.60;;;;;;;;;;5054288;28;20194;-65
2022/06/24 13:35:24;;;;;;;2.80;2.60;;;;;;;;;;5054310;28;20178;-66
2022/06/24 13:37:50;;;;;;;3.20;2.50;;;;;;;;;;5036263;28;20662;-66
2022/06/24 13:40:16;;;;;;;;;;;;;;;;;;5054628;28;20053;-66
2022/06/24 13:42:43;;;;;;;2.35;2.25;;;;;;;;;;5035644;28;20557;-66
2022/06/24 13:45:09;;;;;;;2.60;2.38;;;;;;;;;;5054037;28;20179;-66
2022/06/24 13:47:35;;;;;;;2.58;2.38;;;;;;;;;;5036136;28;20277;-66
2022/06/24 13:50:01;;;;;;;2.60;2.40;;;;;;;;;;5053226;28;20792;-65
2022/06/24 13:52:28;;;;;;;2.77;2.57;;;;;;;;;;5052821;28;20382;-66
2022/06/24 13:54:55;;;;;;;2.60;2.40;;;;;;;;;;5053860;28;20155;-66
2022/06/24 13:57:21;;;;;;;2.50;2.33;;;;;;;;;;5052687;28;20866;-66
2022/06/24 13:59:48;;;;;;;2.83;2.28;;;;;;;;;;5052523;28;20374;-66
2022/06/24 14:02:14;;;;;;;2.90;2.40;;;;;;;;;;5053720;28;20197;-66
2022/06/24 14:04:40;;;;;;;2.78;2.58;;;;;;;;;;5053780;28;20174;-66
2022/06/24 14:07:06;;;;;;;2.75;2.55;;;;;;;;;;5053693;28;20197;-66
2022/06/24 14:09:33;;;;;;;2.50;2.30;;;;;;;;;;5053785;28;20236;-66
2022/06/24 14:11:59;;;;;;;2.38;2.17;;;;;;;;;;5053373;28;20214;-66
2022/06/24 14:14:25;;;;;;;2.25;2.13;;;;;;;;;;5053459;28;20666;-66
2022/06/24 14:16:51;;;;;;;2.30;2.20;;;;;;;;;;5035467;28;20225;-66
2022/06/24 14:19:17;;;;;;;2.40;2.30;;;;;;;;;;5053643;28;20182;-66
2022/06/24 14:21:42;;;;;;;2.47;2.33;;;;;;;;;;5053480;28;20218;-66
2022/06/24 14:26:53;;;;;;;2.72;2.53;;;;;;;;;;5053832;28;20216;-66
2022/06/24 14:29:19;;;;;;;3.95;2.15;;;;;;;;;;5035464;28;20214;-66
2022/06/24 14:31:45;;;;;;;2.78;2.58;;;;;;;;;;5053206;28;20243;-66
2022/06/24 14:34:11;;;;;;;3.90;2.55;;;;;;;;;;5053743;28;20544;-66
2022/06/24 14:36:37;;;;;;;2.35;2.25;;;;;;;;;;5053149;28;20178;-66
2022/06/24 14:41:47;;;;;;;2.53;2.33;;;;;;;;;;5053365;28;20210;-66
2022/06/24 14:44:13;;;;;;;2.70;2.50;;;;;;;;;;5035326;28;20178;-65
2022/06/24 14:46:39;;;;;;;2.92;2.63;;;;;;;;;;5053310;28;20660;-66
2022/06/24 14:49:05;;;;;;;2.30;2.10;;;;;;;;;;5052997;28;20205;-66
2022/06/24 14:51:31;;;;;;;2.60;2.38;;;;;;;;;;5053019;28;20194;-66
2022/06/24 14:53:58;;;;;;;2.50;2.30;;;;;;;;;;5054801;28;20186;-66
2022/06/24 14:56:24;;;;;;;2.60;2.40;;;;;;;;;;5057234;28;20175;-66
2022/06/24 14:58:50;;;;;;;2.40;2.20;;;;;;;;;;5057414;28;20544;-66